PWSweather.com
Personal Weather Stations
Station Observations
WISCHPK61
Green Bay Schmitt Park, Green Bay, WI 54311

Green Bay Schmitt ParkGreen Bay, WI 54311

Lat: 44.514277, Lon: -87.935067

Elevation: 735

Station Type: Acu Rite Pro Weather Center model 02032C

http://greenbayweathercam.com

High Low Average
Temperature 56.7°F13.7°C 15.6°F-9.1°C 32.5°F0.3°C
Dew Point 56.4°F13.6°C 7.5°F-13.6°C 30.6°F-0.8°C
Winds 1.2 mph 1.9 kmh Calm Calm Calm SCalm S
Wind Gusts 5.8 mph9.3 kmh -- --
Humidity 99% 65% 93%
Pressure 29.61 in1002.7 mb 29.26 in990.9 mb -
Precipitation 0.31 in7.9 mm - -
Hour Temp Dew Point Humidity Winds Wind Gusts Pressure Precip Precip Rate Daily Precip Total
12:00 AM 20.1°F-6.6°C 4.0°F-15.6°C 49% Calm Calm -- 29.60 in1002.4 mb - 0.00 in0.0 mm 0.00 in0.0 mm
01:00 AM 18.9°F-7.3°C 18.7°F-7.4°C 99% Calm Calm -- 29.59 in1002.0 mb - 0.00 in0.0 mm 0.00 in0.0 mm
02:00 AM 18.0°F-7.8°C 17.8°F-7.9°C 99% Calm Calm -- 29.60 in1002.4 mb - 0.00 in0.0 mm 0.00 in0.0 mm
03:00 AM 17.3°F-8.2°C 7.5°F-13.6°C 65% Calm Calm -- 29.61 in1002.7 mb - 0.00 in0.0 mm 0.00 in0.0 mm
04:00 AM 16.9°F-8.4°C 16.7°F-8.5°C 99% Calm Calm -- 29.60 in1002.4 mb - 0.00 in0.0 mm 0.00 in0.0 mm
05:00 AM 16.7°F-8.5°C 16.5°F-8.6°C 99% Calm Calm -- 29.59 in1002.0 mb - 0.00 in0.0 mm 0.00 in0.0 mm
06:00 AM 16.3°F-8.7°C 9.5°F-12.5°C 74% Calm Calm -- 29.57 in1001.4 mb - 0.00 in0.0 mm 0.00 in0.0 mm
07:00 AM 15.6°F-9.1°C 15.4°F-9.2°C 99% Calm Calm -- 29.57 in1001.4 mb - 0.00 in0.0 mm 0.00 in0.0 mm
08:00 AM 16.2°F-8.8°C 16.0°F-8.9°C 99% Calm Calm -- 29.56 in1001.0 mb - 0.00 in0.0 mm 0.00 in0.0 mm
09:00 AM 23.6°F-4.7°C 15.6°F-9.1°C 71% Calm Calm -- 29.56 in1001.0 mb - 0.00 in0.0 mm 0.00 in0.0 mm
10:00 AM 36.2°F2.3°C 36.0°F2.2°C 99% Calm Calm 1.2 mph1.9 kmh 29.56 in1001.0 mb - 0.00 in0.0 mm 0.00 in0.0 mm
11:00 AM 41.2°F5.1°C 41.0°F5.0°C 99% Calm Calm -- 29.54 in1000.3 mb - 0.00 in0.0 mm 0.00 in0.0 mm
12:00 PM 49.5°F9.7°C 49.3°F9.6°C 99% Calm Calm -- 29.52 in999.7 mb - 0.02 in0.5 mm 0.02 in0.5 mm
01:00 PM 52.1°F11.2°C 41.5°F5.3°C 67% 1.2 mph SSW1.9 kmh SSW 1.2 mph1.9 kmh 29.49 in998.6 mb - 0.05 in1.3 mm 0.07 in1.8 mm
02:00 PM 56.7°F13.7°C 56.4°F13.6°C 99% Calm Calm -- 29.46 in997.6 mb - 0.00 in0.0 mm 0.07 in1.8 mm
03:00 PM 53.0°F11.7°C 52.7°F11.5°C 99% Calm Calm -- 29.43 in996.6 mb - 0.00 in0.0 mm 0.07 in1.8 mm
04:00 PM 45.2°F7.3°C 44.9°F7.2°C 99% Calm Calm -- 29.40 in995.6 mb - 0.00 in0.0 mm 0.07 in1.8 mm
05:00 PM 39.9°F4.4°C 39.6°F4.2°C 99% Calm Calm -- 29.38 in994.9 mb - 0.00 in0.0 mm 0.07 in1.8 mm
06:00 PM 37.4°F3.0°C 37.1°F2.8°C 99% Calm Calm -- 29.38 in994.9 mb - 0.00 in0.0 mm 0.07 in1.8 mm
07:00 PM 35.8°F2.1°C 35.5°F1.9°C 99% Calm Calm -- 29.35 in993.9 mb - 0.00 in0.0 mm 0.07 in1.8 mm
08:00 PM 35.1°F1.7°C 34.8°F1.6°C 99% Calm Calm -- 29.34 in993.6 mb - 0.00 in0.0 mm 0.07 in1.8 mm
09:00 PM 34.0°F1.1°C 33.7°F0.9°C 99% Calm Calm -- 29.33 in993.2 mb - 0.04 in1.0 mm 0.11 in2.8 mm
10:00 PM 34.2°F1.2°C 33.9°F1.1°C 99% Calm Calm -- 29.30 in992.2 mb - 0.12 in3.0 mm 0.23 in5.8 mm
11:00 PM 34.5°F1.4°C 32.1°F0.1°C 91% 1.2 mph E1.9 kmh E 5.8 mph9.3 kmh 29.29 in991.9 mb - 0.08 in2.0 mm 0.31 in7.9 mm